Taos Ski Valley, NM

9:52 PM MDT on October 01, 2014 (GMT -0600)
Los Alamos | Change Station
CLOSE
Current Station
Airport
Location: Los Alamos,
Elevation: 7172 ft
Nearby Weather Stations
Active Advisory: Special Statement

Elev 7172 ft 35.88 °N, 106.27 °W | Updated 17 minutes ago

Mostly Cloudy
Mostly Cloudy
55 °F
Feels Like 55 °F
N
10
Wind Variable Wind from WNW

Today
High -- | Low -- °F
--% Chance of Precip.
Yesterday
High -- | Low -- °F
Precip. -- in
6:57 AM 6:45 PM
First Quarter, 54% visible
Pressure 30.05 in
Visibility 10.0 miles
Clouds Clear
Dew Point 32 °F
Humidity 41%
Rainfall 0.00 in
Snow Depth 1 in , 0 in , 3 in
UV 0 out of 12
Pollen 4.40 out of 12
Air Quality Not available.
Flu Activity Not available.
METAR KLAM 020335Z AUTO 30009KT 10SM CLR 13/00 A3005 RMK AO2 T01300000

More Conditions Fewer Conditions

Pressure 30.05 in
Visibility 10.0 miles
Clouds Clear
Dew Point 32 °F
Humidity 41%
Rainfall 0.00 in
Snow Depth 1 in , 0 in , 3 in
UV 0 out of 12
Pollen 4.40 out of 12
Air Quality Not available.
Flu Activity Not available.
METAR KLAM 020335Z AUTO 30009KT 10SM CLR 13/00 A3005 RMK AO2 T01300000

More Conditions Fewer Conditions

Nowcast | as of 8:22 PM MDT on October 1, 2014

A few showers and isolated thunderstorms will continue over northern and west central New Mexico through this evening. Movement will be to the east at 35 mph. Rain will be mostly light with generally under a tenth of an inch...with up to one quarter inch in a few spots. Wind gusts could touch 50 mph along with pea size hail and dangerous cloud to ground lightning strikes with the strongest storms. Locations impacted through 10 PM include Standing Rock...Pueblo pintad0... Lindrith...canjillion...El Rito...Grenville...Capulin and Folsom.

×

10-Day Weather Forecast

Almanac

Astronomy

Oct. 01, 2014 Rise Set
Actual Time 6:57 AM MDT 6:45 PM MDT
Civil Twilight 6:31 AM MDT 7:11 PM MDT
Nautical Twilight 6:01 AM MDT 7:41 PM MDT
Astronomical Twilight 5:31 AM MDT 8:11 PM MDT
Moon 1:53 PM MDT (10/1) No Moon Set
Length of Visible Light 12h 39m
Length of Day
11h 48m
Tomorrow will be 2m 18s shorter.
First Quarter, 54% of the Moon is Illuminated
Today
First Quarter
Oct 8
Full
Oct 15
Last Quarter
Oct 23
New
Oct 30
First Quarter

Today's Extremes

State Highs State Lows

Community

WunderPhotos

Upload Photos

1,758,170 photos uploaded!

Nearby

Snow Depth

Station Depth Elevation
Santa Fe 1 in 11445 ft
Elk Cabin 0 in 8210 ft
Wesner Springs 3 in 11120 ft
Silver Creek Divide 17 in 9000 ft
Signal Peak 1 in 8360 ft

Earthquake Activity

City Distance Mag. Time & Date
Trinidad, Colorado 57 miles 2.9 3:55 AM MDT
2014-09-30
Minimum magnitude displayed is 2.5.

Coastal Water Temperatures

Place Temperature
No Stations Reporting

Nearby Weather Stations